Chu-tung, Taiwan
Current Conditions -  °F | °C
As of 12:00 AM on Monday 24 Nov 2014 (Local Time) from RCTP Reporting Station
Few Clouds Few Clouds  
Wind Chill: 68°   Ceiling: Unl
Heat Index: 68°   Visibility: 6mi
Dew Point: 63°   Wind: 3mph
Humidity: 83%   Direction: 160°SSE
Pressure: 30"   Gusts: NA
Location:  24.73°N, 121.08°E
Report Text: RCTP 231600Z 16003KT 9999 FEW025 20/17 Q1016 NOSIG RMK A3001
Loading
Personal Weather Stations






























Interactive Weather Map New forecast layout! Learn more

10-Day Weather Forecast

Advertisements
Track Severe Weather on mobile